Keady, United Kingdom
Current Conditions -  °F | °C
As of 10:50 AM on Saturday 25 Oct 2014 (Local Time) from EGAA Reporting Station
Scattered Clouds Scattered Clouds  
Wind Chill: 11°   Ceiling: Unl
Heat Index: 11°   Visibility: 6mi
Dew Point:   Wind: 20mph
Humidity: 82%   Direction: 230°SW
Pressure: 29.74"   Gusts: NA
Location:  54.25°N, 6.7°W
Report Text: EGAA 250950Z 23017KT 9999 FEW009 SCT015 11/08 Q1007
Loading
Personal Weather Stations






























Interactive Weather Map
Tropical Storm Tracking
New forecast layout! Learn more

10-Day Weather Forecast

Advertisements
Track Severe Weather on mobile